Time;durP1;ratioP1;P1;durP2;ratioP2;P2;SDS_P1;SDS_P2;PMS_P1;PMS_P2;Temp;Humidity;BMP_temperature;BMP_pressure;BME280_temperature;BME280_humidity;BME280_pressure;Samples;Min_cycle;Max_cycle;Signal;HPM_P1;HPM_P2
2022/07/12 00:00:05;;;;;;;;;;;;;;;;;;1040109;28;3895;-48
2022/07/12 00:00:56;;;;;;;;;;;;;;;;;;1039712;28;3935;-51
2022/07/12 00:01:26;;;;;;;;;;;;;;;;;;1041232;28;1812;-50
2022/07/12 00:01:56;;;;;;;;;;;;;;;;;;1040093;28;4281;-51
2022/07/12 00:02:27;;;;;;;;;;;;;;;;;;1044197;28;1529;-51
2022/07/12 00:02:57;;;;;;;;;;;;;;;;;;1042014;28;4138;-51
2022/07/12 00:03:27;;;;;;;;;;;;;;;;;;1035201;28;1652;-53
2022/07/12 00:03:58;;;;;;;;;;;;;;;;;;1034263;28;3984;-53
2022/07/12 00:04:28;;;;;;;;;;;;;;;;;;1035379;28;1607;-51
2022/07/12 00:04:59;;;;;;;;;;;;;;;;;;1038337;28;4070;-53
2022/07/12 00:05:29;;;;;;;;;;;;;;;;;;1042275;28;1842;-50
2022/07/12 00:05:59;;;;;;;;;;;;;;;;;;1042009;28;4002;-55
2022/07/12 00:06:30;;;;;;;;;;;;;;;;;;1038466;28;1713;-52
2022/07/12 00:07:00;;;;;;;;;;;;;;;;;;1037950;28;4247;-50
2022/07/12 00:07:31;;;;;;;;;;;;;;;;;;1042240;28;1249;-52
2022/07/12 00:08:01;;;;;;;;;;;;;;;;;;1041683;28;4085;-52
2022/07/12 00:08:31;;;;;;;;;;;;;;;;;;1046541;28;1636;-53
2022/07/12 00:09:02;;;;;;;;;;;;;;;;;;1045917;28;4103;-49
2022/07/12 00:09:32;;;;;;;;;;;;;;;;;;1046529;28;1795;-53
2022/07/12 00:10:03;;;;;;;;;;;;;;;;;;1045674;28;4282;-50
2022/07/12 00:10:33;;;;;;;;;;;;;;;;;;1046546;28;1627;-50
2022/07/12 00:11:04;;;;;;;;;;;;;;;;;;1045997;28;4440;-50
2022/07/12 00:11:35;;;;;;;;;;;;;;;;;;1046376;28;1686;-52
2022/07/12 00:12:05;;;;;;;;;;;;;;;;;;1045277;28;4428;-54
2022/07/12 00:12:36;;;;;;;;;;;;;;;;;;1040746;28;1716;-49
2022/07/12 00:13:06;;;;;;;;;;;;;;;;;;1041437;28;4012;-51
2022/07/12 00:13:36;;;;;;;;;;;;;;;;;;1041359;28;1617;-50
2022/07/12 00:14:06;;;;;;;;;;;;;;;;;;1036782;28;3854;-53
2022/07/12 00:14:37;;;;;;;;;;;;;;;;;;1041861;28;1598;-53
2022/07/12 00:15:07;;;;;;;;;;;;;;;;;;1041446;28;4466;-50
2022/07/12 00:15:38;;;;;;;;;;;;;;;;;;1042605;28;1730;-51
2022/07/12 00:16:08;;;;;;;;;;;;;;;;;;1043492;28;4295;-53
2022/07/12 00:16:38;;;;;;;;;;;;;;;;;;1045181;28;1682;-52
2022/07/12 00:17:15;;;;;;;;;;;;;;;;;;1045417;28;3770;-53
2022/07/12 00:17:45;;;;;;;;;;;;;;;;;;1044858;28;1769;-52
2022/07/12 00:18:15;;;;;;;;;;;;;;;;;;1045005;28;3957;-50
2022/07/12 00:18:46;;;;;;;;;;;;;;;;;;1041577;28;1857;-56
2022/07/12 00:19:16;;;;;;;;;;;;;;;;;;1042205;28;3912;-52
2022/07/12 00:19:46;;;;;;;;;;;;;;;;;;1041695;28;1996;-49
2022/07/12 00:20:16;;;;;;;;;;;;;;;;;;1041991;28;4179;-53
2022/07/12 00:20:47;;;;;;;;;;;;;;;;;;1044015;28;1888;-51
2022/07/12 00:21:17;;;;;;;;;;;;;;;;;;1044994;28;3843;-51
2022/07/12 00:21:47;;;;;;;;;;;;;;;;;;1043996;28;1718;-55
2022/07/12 00:22:17;;;;;;;;;;;;;;;;;;1045202;28;4097;-49
2022/07/12 00:22:48;;;;;;;;;;;;;;;;;;1045230;28;1593;-55
2022/07/12 00:23:18;;;;;;;;;;;;;;;;;;1044589;28;4350;-54
2022/07/12 00:23:48;;;;;;;;;;;;;;;;;;1044745;28;1785;-50
2022/07/12 00:24:18;;;;;;;;;;;;;;;;;;1045422;28;3937;-51
2022/07/12 00:24:49;;;;;;;;;;;;;;;;;;1044176;28;1723;-52
2022/07/12 00:25:19;;;;;;;;;;;;;;;;;;1044726;28;3757;-53
2022/07/12 00:25:49;;;;;;;;;;;;;;;;;;1044666;28;1857;-54
2022/07/12 00:26:20;;;;;;;;;;;;;;;;;;1044254;28;3928;-53
2022/07/12 00:26:51;;;;;;;;;;;;;;;;;;1041499;28;1786;-54
2022/07/12 00:27:21;;;;;;;;;;;;;;;;;;1041686;28;4002;-52
2022/07/12 00:27:52;;;;;;;;;;;;;;;;;;1041905;28;1915;-53
2022/07/12 00:28:22;;;;;;;;;;;;;;;;;;1037754;28;4404;-55
2022/07/12 00:28:52;;;;;;;;;;;;;;;;;;1040805;28;1692;-51
2022/07/12 00:29:22;;;;;;;;;;;;;;;;;;1040396;28;3918;-52
2022/07/12 00:29:53;;;;;;;;;;;;;;;;;;1037523;28;1809;-48
2022/07/12 00:30:23;;;;;;;;;;;;;;;;;;1041209;28;4152;-49
2022/07/12 00:30:54;;;;;;;;;;;;;;;;;;1040359;28;1593;-53
2022/07/12 00:31:24;;;;;;;;;;;;;;;;;;1042772;28;4007;-49
2022/07/12 00:31:54;;;;;;;;;;;;;;;;;;1045044;28;4337;-56
2022/07/12 00:32:24;;;;;;;;;;;;;;;;;;1046698;28;1678;-52
2022/07/12 00:32:55;;;;;;;;;;;;;;;;;;1045120;28;3905;-52
2022/07/12 00:33:25;;;;;;;;;;;;;;;;;;1046428;28;2353;-53
2022/07/12 00:33:55;;;;;;;;;;;;;;;;;;1045915;28;3808;-54
2022/07/12 00:34:25;;;;;;;;;;;;;;;;;;1046640;28;1862;-54
2022/07/12 00:34:56;;;;;;;;;;;;;;;;;;1045553;28;4044;-50
2022/07/12 00:35:26;;;;;;;;;;;;;;;;;;1045605;28;1637;-50
2022/07/12 00:35:56;;;;;;;;;;;;;;;;;;1045836;28;4256;-56
2022/07/12 00:36:27;;;;;;;;;;;;;;;;;;1042958;28;1937;-53
2022/07/12 00:36:57;;;;;;;;;;;;;;;;;;1042800;28;4470;-53
2022/07/12 00:37:27;;;;;;;;;;;;;;;;;;1042370;28;1920;-49
2022/07/12 00:37:57;;;;;;;;;;;;;;;;;;1042844;28;3876;-54
2022/07/12 00:38:28;;;;;;;;;;;;;;;;;;1045863;28;1917;-53
2022/07/12 00:38:58;;;;;;;;;;;;;;;;;;1045347;28;4418;-51
2022/07/12 00:39:28;;;;;;;;;;;;;;;;;;1042402;28;1793;-52
2022/07/12 00:39:59;;;;;;;;;;;;;;;;;;1043003;28;3962;-56
2022/07/12 00:40:29;;;;;;;;;;;;;;;;;;1042416;28;1668;-53
2022/07/12 00:40:59;;;;;;;;;;;;;;;;;;1042959;28;4026;-50
2022/07/12 00:41:30;;;;;;;;;;;;;;;;;;1043127;28;1716;-54
2022/07/12 00:42:00;;;;;;;;;;;;;;;;;;1046236;28;3778;-49
2022/07/12 00:42:30;;;;;;;;;;;;;;;;;;1047078;28;3801;-51
2022/07/12 00:43:01;;;;;;;;;;;;;;;;;;1046731;28;4034;-51
2022/07/12 00:43:31;;;;;;;;;;;;;;;;;;1046530;28;2077;-53
2022/07/12 00:44:01;;;;;;;;;;;;;;;;;;1045182;28;4117;-50
2022/07/12 00:44:33;;;;;;;;;;;;;;;;;;1045671;28;1660;-50
2022/07/12 00:45:04;;;;;;;;;;;;;;;;;;1044687;28;4407;-51
2022/07/12 00:45:34;;;;;;;;;;;;;;;;;;1045806;28;1788;-52
2022/07/12 00:46:04;;;;;;;;;;;;;;;;;;1041625;28;4140;-49
2022/07/12 00:46:35;;;;;;;;;;;;;;;;;;1041210;28;1729;-51
2022/07/12 00:47:05;;;;;;;;;;;;;;;;;;1039928;28;4070;-52
2022/07/12 00:47:44;;;;;;;;;;;;;;;;;;1042059;28;2074;-51
2022/07/12 00:48:14;;;;;;;;;;;;;;;;;;1045051;28;4302;-51
2022/07/12 00:48:45;;;;;;;;;;;;;;;;;;1045472;28;1688;-52
2022/07/12 00:49:15;;;;;;;;;;;;;;;;;;1041569;28;4474;-52
2022/07/12 00:49:45;;;;;;;;;;;;;;;;;;1037749;28;1655;-52
2022/07/12 00:50:17;;;;;;;;;;;;;;;;;;1038926;28;3951;-49
2022/07/12 00:50:48;;;;;;;;;;;;;;;;;;1037678;28;1711;-51
2022/07/12 00:51:18;;;;;;;;;;;;;;;;;;1042217;28;4052;-51
2022/07/12 00:51:49;;;;;;;;;;;;;;;;;;1045850;28;1698;-53
2022/07/12 00:52:19;;;;;;;;;;;;;;;;;;1045334;28;3804;-51
2022/07/12 00:52:50;;;;;;;;;;;;;;;;;;1046735;28;1564;-52
2022/07/12 00:53:24;;;;;;;;;;;;;;;;;;1045251;28;3829;-53
2022/07/12 00:53:56;;;;;;;;;;;;;;;;;;1044683;28;3902;-50
2022/07/12 00:54:26;;;;;;;;;;;;;;;;;;1043183;28;1695;-54
2022/07/12 00:54:56;;;;;;;;;;;;;;;;;;1042852;28;3800;-53
2022/07/12 00:55:26;;;;;;;;;;;;;;;;;;1042986;28;1705;-55
2022/07/12 00:55:57;;;;;;;;;;;;;;;;;;1042432;28;3994;-49
2022/07/12 00:56:41;;;;;;;;;;;;;;;;;;1046433;28;2001;-51
2022/07/12 00:57:18;;;;;;;;;;;;;;;;;;1046797;28;4214;-54
2022/07/12 00:57:49;;;;;;;;;;;;;;;;;;1043376;28;1865;-50
2022/07/12 00:58:20;;;;;;;;;;;;;;;;;;1046544;28;4093;-50
2022/07/12 00:58:56;;;;;;;;;;;;;;;;;;1046443;28;1612;-55
2022/07/12 00:59:26;;;;;;;;;;;;;;;;;;1046897;28;3767;-52
2022/07/12 00:59:57;;;;;;;;;;;;;;;;;;1046029;28;3840;-54
2022/07/12 01:00:28;;;;;;;;;;;;;;;;;;1044775;28;1681;-56
2022/07/12 01:00:58;;;;;;;;;;;;;;;;;;1042638;28;4007;-52
2022/07/12 01:01:29;;;;;;;;;;;;;;;;;;1042777;28;1691;-51
2022/07/12 01:01:59;;;;;;;;;;;;;;;;;;1043450;28;3909;-53
2022/07/12 01:02:30;;;;;;;;;;;;;;;;;;1040115;28;1634;-52
2022/07/12 01:03:02;;;;;;;;;;;;;;;;;;1045242;28;3916;-53
2022/07/12 01:03:32;;;;;;;;;;;;;;;;;;1044860;28;1670;-49
2022/07/12 01:04:02;;;;;;;;;;;;;;;;;;1044721;28;3812;-53
2022/07/12 01:04:33;;;;;;;;;;;;;;;;;;1044849;28;1669;-53
2022/07/12 01:05:04;;;;;;;;;;;;;;;;;;1046610;28;4286;-54
2022/07/12 01:05:34;;;;;;;;;;;;;;;;;;1046974;28;1627;-54
2022/07/12 01:06:06;;;;;;;;;;;;;;;;;;1040903;28;3872;-54
2022/07/12 01:06:36;;;;;;;;;;;;;;;;;;1041809;28;1765;-52
2022/07/12 01:07:07;;;;;;;;;;;;;;;;;;1041078;28;3974;-52
2022/07/12 01:07:37;;;;;;;;;;;;;;;;;;1042390;28;1623;-53
2022/07/12 01:08:08;;;;;;;;;;;;;;;;;;1046617;28;4475;-51
2022/07/12 01:08:38;;;;;;;;;;;;;;;;;;1046786;28;1672;-50
2022/07/12 01:09:10;;;;;;;;;;;;;;;;;;1046263;28;3811;-51
2022/07/12 01:09:41;;;;;;;;;;;;;;;;;;1046511;28;1667;-49
2022/07/12 01:10:11;;;;;;;;;;;;;;;;;;1040507;28;4074;-51
2022/07/12 01:10:42;;;;;;;;;;;;;;;;;;1046946;28;1813;-52
2022/07/12 01:11:13;;;;;;;;;;;;;;;;;;1046475;28;4076;-53
2022/07/12 01:11:49;;;;;;;;;;;;;;;;;;1047135;28;1351;-53
2022/07/12 01:12:20;;;;;;;;;;;;;;;;;;1045210;28;4499;-49
2022/07/12 01:12:51;;;;;;;;;;;;;;;;;;1041402;28;1566;-49
2022/07/12 01:13:21;;;;;;;;;;;;;;;;;;1041730;28;4446;-54
2022/07/12 01:13:52;;;;;;;;;;;;;;;;;;1042118;28;1355;-49
2022/07/12 01:14:22;;;;;;;;;;;;;;;;;;1041694;28;4469;-51
2022/07/12 01:14:53;;;;;;;;;;;;;;;;;;1040467;28;2601;-52
2022/07/12 01:15:23;;;;;;;;;;;;;;;;;;1040215;28;4091;-51
2022/07/12 01:15:54;;;;;;;;;;;;;;;;;;1041324;28;1768;-56
2022/07/12 01:16:25;;;;;;;;;;;;;;;;;;1039916;28;4071;-55
2022/07/12 01:16:56;;;;;;;;;;;;;;;;;;1039892;28;3919;-53
2022/07/12 01:17:27;;;;;;;;;;;;;;;;;;1042609;28;1668;-52
2022/07/12 01:17:59;;;;;;;;;;;;;;;;;;1042816;28;4001;-54
2022/07/12 01:18:30;;;;;;;;;;;;;;;;;;1043015;28;1828;-51
2022/07/12 01:19:00;;;;;;;;;;;;;;;;;;1038620;28;3877;-56
2022/07/12 01:19:31;;;;;;;;;;;;;;;;;;1042829;28;1417;-49
2022/07/12 01:20:03;;;;;;;;;;;;;;;;;;1042713;28;3982;-49
2022/07/12 01:20:33;;;;;;;;;;;;;;;;;;1042418;28;1452;-54
2022/07/12 01:21:05;;;;;;;;;;;;;;;;;;1042383;28;4026;-54
2022/07/12 01:21:37;;;;;;;;;;;;;;;;;;1043329;28;1784;-50
2022/07/12 01:22:09;;;;;;;;;;;;;;;;;;1042317;28;3799;-53
2022/07/12 01:22:41;;;;;;;;;;;;;;;;;;1042702;28;1682;-54
2022/07/12 01:23:11;;;;;;;;;;;;;;;;;;1041320;28;4088;-54
2022/07/12 01:23:42;;;;;;;;;;;;;;;;;;1041480;28;2197;-51
2022/07/12 01:24:12;;;;;;;;;;;;;;;;;;1040882;28;3979;-54
2022/07/12 01:24:43;;;;;;;;;;;;;;;;;;1041925;28;1628;-51
2022/07/12 01:25:13;;;;;;;;;;;;;;;;;;1040997;28;3806;-52
2022/07/12 01:25:44;;;;;;;;;;;;;;;;;;1042055;28;1739;-52
2022/07/12 01:26:14;;;;;;;;;;;;;;;;;;1041225;28;3892;-49
2022/07/12 01:26:45;;;;;;;;;;;;;;;;;;1041068;28;1553;-51
2022/07/12 01:27:16;;;;;;;;;;;;;;;;;;1040772;28;3891;-52
2022/07/12 01:27:46;;;;;;;;;;;;;;;;;;1042661;28;1283;-53
2022/07/12 01:28:17;;;;;;;;;;;;;;;;;;1041188;28;3808;-52
2022/07/12 01:28:47;;;;;;;;;;;;;;;;;;1041553;28;1730;-52
2022/07/12 01:29:17;;;;;;;;;;;;;;;;;;1040657;28;3809;-51
2022/07/12 01:29:47;;;;;;;;;;;;;;;;;;1041577;28;1372;-50
2022/07/12 01:30:18;;;;;;;;;;;;;;;;;;1040648;28;4219;-52
2022/07/12 01:30:48;;;;;;;;;;;;;;;;;;1041677;28;1661;-51
2022/07/12 01:31:19;;;;;;;;;;;;;;;;;;1040658;28;3951;-51
2022/07/12 01:31:49;;;;;;;;;;;;;;;;;;1041573;28;1845;-50
2022/07/12 01:32:25;;;;;;;;;;;;;;;;;;1046014;28;4385;-53
2022/07/12 01:32:56;;;;;;;;;;;;;;;;;;1046007;28;4112;-53
2022/07/12 01:33:26;;;;;;;;;;;;;;;;;;1047206;28;1777;-52
2022/07/12 01:33:57;;;;;;;;;;;;;;;;;;1045305;28;4554;-53
2022/07/12 01:34:28;;;;;;;;;;;;;;;;;;1041173;28;1493;-49
2022/07/12 01:35:03;;;;;;;;;;;;;;;;;;1041005;28;3927;-49
2022/07/12 01:35:35;;;;;;;;;;;;;;;;;;1042319;28;1578;-52
2022/07/12 01:36:06;;;;;;;;;;;;;;;;;;1042736;28;4056;-49
2022/07/12 01:36:37;;;;;;;;;;;;;;;;;;1036534;28;1802;-55
2022/07/12 01:37:08;;;;;;;;;;;;;;;;;;1036489;28;3909;-50
2022/07/12 01:37:40;;;;;;;;;;;;;;;;;;1042920;28;1406;-54
2022/07/12 01:38:11;;;;;;;;;;;;;;;;;;1041781;28;3844;-52
2022/07/12 01:38:41;;;;;;;;;;;;;;;;;;1041990;28;1184;-54
2022/07/12 01:39:11;;;;;;;;;;;;;;;;;;1041102;28;4265;-52
2022/07/12 01:39:42;;;;;;;;;;;;;;;;;;1045115;28;1147;-53
2022/07/12 01:40:13;;;;;;;;;;;;;;;;;;1040929;28;4068;-54
2022/07/12 01:40:43;;;;;;;;;;;;;;;;;;1041957;28;1662;-53
2022/07/12 01:41:15;;;;;;;;;;;;;;;;;;1040392;28;4015;-53
2022/07/12 01:41:46;;;;;;;;;;;;;;;;;;1041172;28;1633;-54
2022/07/12 01:42:16;;;;;;;;;;;;;;;;;;1040655;28;3809;-52
2022/07/12 01:42:47;;;;;;;;;;;;;;;;;;1041902;28;1515;-56
2022/07/12 01:43:18;;;;;;;;;;;;;;;;;;1040528;28;4052;-52
2022/07/12 01:43:48;;;;;;;;;;;;;;;;;;1040928;28;1641;-53
2022/07/12 01:44:18;;;;;;;;;;;;;;;;;;1040170;28;4138;-50
2022/07/12 01:44:52;;;;;;;;;;;;;;;;;;1041667;28;1663;-50
2022/07/12 01:45:22;;;;;;;;;;;;;;;;;;1040742;28;3941;-55
2022/07/12 01:45:52;;;;;;;;;;;;;;;;;;1040553;28;1672;-52
2022/07/12 01:46:22;;;;;;;;;;;;;;;;;;1035678;28;3898;-53
2022/07/12 01:46:52;;;;;;;;;;;;;;;;;;1037396;28;1625;-55
2022/07/12 01:47:24;;;;;;;;;;;;;;;;;;1040990;28;3800;-55
2022/07/12 01:47:58;;;;;;;;;;;;;;;;;;1042539;28;3962;-51
2022/07/12 01:48:28;;;;;;;;;;;;;;;;;;1041263;28;1614;-50
2022/07/12 01:48:58;;;;;;;;;;;;;;;;;;1040960;28;3799;-54
2022/07/12 01:49:29;;;;;;;;;;;;;;;;;;1041038;28;1642;-52
2022/07/12 01:49:59;;;;;;;;;;;;;;;;;;1041589;28;4125;-54
2022/07/12 01:50:29;;;;;;;;;;;;;;;;;;1041514;28;1400;-53
2022/07/12 01:51:00;;;;;;;;;;;;;;;;;;1040041;28;3905;-54
2022/07/12 01:51:31;;;;;;;;;;;;;;;;;;1040685;28;1710;-54
2022/07/12 01:52:01;;;;;;;;;;;;;;;;;;1041190;28;4097;-52
2022/07/12 01:52:32;;;;;;;;;;;;;;;;;;1040967;28;1829;-52
2022/07/12 01:53:04;;;;;;;;;;;;;;;;;;1040363;28;3962;-51
2022/07/12 01:53:36;;;;;;;;;;;;;;;;;;1041055;28;1855;-50
2022/07/12 01:54:06;;;;;;;;;;;;;;;;;;1040344;28;3946;-52
2022/07/12 01:54:36;;;;;;;;;;;;;;;;;;1042780;28;1664;-50
2022/07/12 01:55:08;;;;;;;;;;;;;;;;;;1041294;28;4546;-52
2022/07/12 01:55:45;;;;;;;;;;;;;;;;;;1041166;28;1597;-56
2022/07/12 01:56:28;;;;;;;;;;;;;;;;;;1039930;28;4209;-53
2022/07/12 01:57:06;;;;;;;;;;;;;;;;;;1040621;28;4033;-51
2022/07/12 01:57:37;;;;;;;;;;;;;;;;;;1036014;28;1826;-51
2022/07/12 01:58:07;;;;;;;;;;;;;;;;;;1035956;28;4079;-50
2022/07/12 01:58:37;;;;;;;;;;;;;;;;;;1037331;28;1787;-54
2022/07/12 01:59:08;;;;;;;;;;;;;;;;;;1042412;28;4066;-50
2022/07/12 01:59:39;;;;;;;;;;;;;;;;;;1046369;28;1635;-51
2022/07/12 02:00:11;;;;;;;;;;;;;;;;;;1045083;28;3832;-51
2022/07/12 02:00:41;;;;;;;;;;;;;;;;;;1045647;28;1747;-54
2022/07/12 02:01:11;;;;;;;;;;;;;;;;;;1046766;28;3975;-49
2022/07/12 02:01:42;;;;;;;;;;;;;;;;;;1045218;28;1593;-50
2022/07/12 02:02:12;;;;;;;;;;;;;;;;;;1044731;28;3982;-52
2022/07/12 02:02:45;;;;;;;;;;;;;;;;;;1046248;28;1537;-52
2022/07/12 02:03:15;;;;;;;;;;;;;;;;;;1044760;28;3985;-56
2022/07/12 02:03:45;;;;;;;;;;;;;;;;;;1045180;28;1405;-53
2022/07/12 02:04:16;;;;;;;;;;;;;;;;;;1045470;28;4233;-53
2022/07/12 02:04:47;;;;;;;;;;;;;;;;;;1045152;28;1625;-56
2022/07/12 02:05:18;;;;;;;;;;;;;;;;;;1044297;28;4233;-51
2022/07/12 02:05:48;;;;;;;;;;;;;;;;;;1045436;28;1428;-50
2022/07/12 02:06:19;;;;;;;;;;;;;;;;;;1042163;28;4356;-54
2022/07/12 02:06:49;;;;;;;;;;;;;;;;;;1038230;28;1714;-55
2022/07/12 02:07:20;;;;;;;;;;;;;;;;;;1038275;28;3746;-52
2022/07/12 02:07:51;;;;;;;;;;;;;;;;;;1038702;28;1848;-52
2022/07/12 02:08:21;;;;;;;;;;;;;;;;;;1041076;28;3769;-50
2022/07/12 02:08:52;;;;;;;;;;;;;;;;;;1045518;28;1593;-52
2022/07/12 02:09:22;;;;;;;;;;;;;;;;;;1044668;28;4338;-52
2022/07/12 02:09:53;;;;;;;;;;;;;;;;;;1046439;28;1853;-52
2022/07/12 02:10:23;;;;;;;;;;;;;;;;;;1045335;28;3703;-53
2022/07/12 02:10:54;;;;;;;;;;;;;;;;;;1044804;28;1659;-49
2022/07/12 02:11:24;;;;;;;;;;;;;;;;;;1045835;28;3640;-53
2022/07/12 02:11:55;;;;;;;;;;;;;;;;;;1045627;28;3823;-54
2022/07/12 02:12:25;;;;;;;;;;;;;;;;;;1045691;28;1590;-50
2022/07/12 02:12:56;;;;;;;;;;;;;;;;;;1039815;28;4234;-54
2022/07/12 02:13:26;;;;;;;;;;;;;;;;;;1039970;28;1668;-54
2022/07/12 02:13:56;;;;;;;;;;;;;;;;;;1040752;28;4070;-55
2022/07/12 02:14:27;;;;;;;;;;;;;;;;;;1042599;28;1529;-51
2022/07/12 02:14:57;;;;;;;;;;;;;;;;;;1042032;28;3960;-53
2022/07/12 02:15:27;;;;;;;;;;;;;;;;;;1042333;28;1875;-53
2022/07/12 02:15:58;;;;;;;;;;;;;;;;;;1042175;28;3892;-51
2022/07/12 02:16:28;;;;;;;;;;;;;;;;;;1042676;28;1643;-53
2022/07/12 02:16:58;;;;;;;;;;;;;;;;;;1044039;28;3844;-52
2022/07/12 02:17:28;;;;;;;;;;;;;;;;;;1045111;28;1821;-49
2022/07/12 02:17:59;;;;;;;;;;;;;;;;;;1046055;28;4054;-52
2022/07/12 02:18:31;;;;;;;;;;;;;;;;;;1043098;28;1806;-53
2022/07/12 02:19:02;;;;;;;;;;;;;;;;;;1042352;28;3907;-50
2022/07/12 02:19:32;;;;;;;;;;;;;;;;;;1042400;28;1819;-49
2022/07/12 02:20:03;;;;;;;;;;;;;;;;;;1042724;28;4108;-54
2022/07/12 02:20:33;;;;;;;;;;;;;;;;;;1044033;28;1834;-52
2022/07/12 02:21:03;;;;;;;;;;;;;;;;;;1043851;28;3888;-51
2022/07/12 02:21:34;;;;;;;;;;;;;;;;;;1046104;28;1530;-49
2022/07/12 02:22:04;;;;;;;;;;;;;;;;;;1044971;28;3800;-52
2022/07/12 02:22:34;;;;;;;;;;;;;;;;;;1046279;28;1881;-55
2022/07/12 02:23:05;;;;;;;;;;;;;;;;;;1045703;28;4118;-52
2022/07/12 02:23:35;;;;;;;;;;;;;;;;;;1045456;28;1665;-53
2022/07/12 02:24:05;;;;;;;;;;;;;;;;;;1040645;28;4000;-53
2022/07/12 02:24:36;;;;;;;;;;;;;;;;;;1040697;28;1324;-54
2022/07/12 02:25:06;;;;;;;;;;;;;;;;;;1040245;28;3811;-53
2022/07/12 02:25:36;;;;;;;;;;;;;;;;;;1040867;28;1717;-54
2022/07/12 02:26:07;;;;;;;;;;;;;;;;;;1044396;28;3892;-51
2022/07/12 02:26:38;;;;;;;;;;;;;;;;;;1044850;28;1344;-51
2022/07/12 02:27:08;;;;;;;;;;;;;;;;;;1043737;28;4609;-50
2022/07/12 02:27:40;;;;;;;;;;;;;;;;;;1045382;28;1341;-51
2022/07/12 02:28:10;;;;;;;;;;;;;;;;;;1044751;28;3775;-49
2022/07/12 02:28:41;;;;;;;;;;;;;;;;;;1046067;28;1492;-55
2022/07/12 02:29:11;;;;;;;;;;;;;;;;;;1042356;28;3886;-52
2022/07/12 02:29:42;;;;;;;;;;;;;;;;;;1042613;28;1017;-55
2022/07/12 02:30:12;;;;;;;;;;;;;;;;;;1042211;28;3909;-54
2022/07/12 02:30:42;;;;;;;;;;;;;;;;;;1042965;28;1598;-52
2022/07/12 02:31:13;;;;;;;;;;;;;;;;;;1043917;28;3911;-52
2022/07/12 02:31:43;;;;;;;;;;;;;;;;;;1044822;28;1671;-53
2022/07/12 02:32:14;;;;;;;;;;;;;;;;;;1044281;28;4324;-52
2022/07/12 02:32:44;;;;;;;;;;;;;;;;;;1045250;28;1392;-52
2022/07/12 02:33:15;;;;;;;;;;;;;;;;;;1044689;28;4042;-53
2022/07/12 02:33:52;;;;;;;;;;;;;;;;;;1045130;28;1867;-49
2022/07/12 02:34:23;;;;;;;;;;;;;;;;;;1044948;28;3764;-50
2022/07/12 02:34:53;;;;;;;;;;;;;;;;;;1044424;28;1581;-53
2022/07/12 02:35:24;;;;;;;;;;;;;;;;;;1044932;28;3912;-52
2022/07/12 02:35:55;;;;;;;;;;;;;;;;;;1045350;28;4165;-50
2022/07/12 02:36:25;;;;;;;;;;;;;;;;;;1045649;28;1582;-52
2022/07/12 02:36:56;;;;;;;;;;;;;;;;;;1045351;28;3932;-53
2022/07/12 02:37:26;;;;;;;;;;;;;;;;;;1041551;28;1684;-52
2022/07/12 02:37:56;;;;;;;;;;;;;;;;;;1041602;28;3999;-54
2022/07/12 02:38:26;;;;;;;;;;;;;;;;;;1041475;28;1695;-51
2022/07/12 02:38:57;;;;;;;;;;;;;;;;;;1040550;28;4067;-54
2022/07/12 02:39:27;;;;;;;;;;;;;;;;;;1044715;28;1372;-52
2022/07/12 02:40:52;;;;;;;;;;;;;;;;;;1044764;28;1655;-52
2022/07/12 02:41:24;;;;;;;;;;;;;;;;;;1044309;28;4049;-54
2022/07/12 02:41:55;;;;;;;;;;;;;;;;;;1045611;28;4039;-50
2022/07/12 02:42:25;;;;;;;;;;;;;;;;;;1045870;28;2074;-53
2022/07/12 02:42:55;;;;;;;;;;;;;;;;;;1045055;28;4080;-52
2022/07/12 02:43:26;;;;;;;;;;;;;;;;;;1045134;28;1989;-50
2022/07/12 02:43:57;;;;;;;;;;;;;;;;;;1045195;28;4287;-51
2022/07/12 02:44:27;;;;;;;;;;;;;;;;;;1044572;28;2231;-53
2022/07/12 02:44:57;;;;;;;;;;;;;;;;;;1044498;28;3913;-50
2022/07/12 02:45:28;;;;;;;;;;;;;;;;;;1044947;28;1792;-55
2022/07/12 02:46:06;;;;;;;;;;;;;;;;;;1045020;28;4602;-55
2022/07/12 02:46:36;;;;;;;;;;;;;;;;;;1044966;28;1650;-51
2022/07/12 02:47:07;;;;;;;;;;;;;;;;;;1044071;28;3872;-51
2022/07/12 02:47:38;;;;;;;;;;;;;;;;;;1043861;28;1326;-52
2022/07/12 02:48:10;;;;;;;;;;;;;;;;;;1040116;28;3802;-57
2022/07/12 02:48:41;;;;;;;;;;;;;;;;;;1040930;28;1980;-51
2022/07/12 02:49:11;;;;;;;;;;;;;;;;;;1041085;28;3801;-51
2022/07/12 02:49:41;;;;;;;;;;;;;;;;;;1040390;28;1414;-51
2022/07/12 02:50:11;;;;;;;;;;;;;;;;;;1040686;28;3974;-56
2022/07/12 02:50:42;;;;;;;;;;;;;;;;;;1041068;28;1298;-53
2022/07/12 02:51:13;;;;;;;;;;;;;;;;;;1044144;28;4032;-52
2022/07/12 02:51:43;;;;;;;;;;;;;;;;;;1045463;28;1773;-50
2022/07/12 02:52:13;;;;;;;;;;;;;;;;;;1040799;28;3802;-55
2022/07/12 02:52:44;;;;;;;;;;;;;;;;;;1040973;28;1545;-56
2022/07/12 02:53:14;;;;;;;;;;;;;;;;;;1036550;28;4011;-55
2022/07/12 02:53:45;;;;;;;;;;;;;;;;;;1036578;28;1712;-52
2022/07/12 02:54:15;;;;;;;;;;;;;;;;;;1037720;28;3934;-52
2022/07/12 02:54:45;;;;;;;;;;;;;;;;;;1037567;28;1692;-53
2022/07/12 02:55:16;;;;;;;;;;;;;;;;;;1042474;28;3775;-53
2022/07/12 02:55:46;;;;;;;;;;;;;;;;;;1042076;28;1955;-52
2022/07/12 02:56:16;;;;;;;;;;;;;;;;;;1045432;28;3855;-50
2022/07/12 02:56:53;;;;;;;;;;;;;;;;;;1043746;28;1969;-50
2022/07/12 02:57:23;;;;;;;;;;;;;;;;;;1043645;28;3700;-49
2022/07/12 02:57:54;;;;;;;;;;;;;;;;;;1045376;28;1565;-53
2022/07/12 02:58:24;;;;;;;;;;;;;;;;;;1045147;28;3698;-53
2022/07/12 02:58:55;;;;;;;;;;;;;;;;;;1044466;28;4478;-49
2022/07/12 02:59:25;;;;;;;;;;;;;;;;;;1045899;28;1653;-50
2022/07/12 02:59:55;;;;;;;;;;;;;;;;;;1041381;28;3980;-53
2022/07/12 03:00:26;;;;;;;;;;;;;;;;;;1043168;28;1235;-53
2022/07/12 03:00:56;;;;;;;;;;;;;;;;;;1041617;28;4426;-50
2022/07/12 03:01:27;;;;;;;;;;;;;;;;;;1046999;28;1670;-50
2022/07/12 03:01:57;;;;;;;;;;;;;;;;;;1041608;28;3986;-50
2022/07/12 03:02:28;;;;;;;;;;;;;;;;;;1042917;28;1662;-52
2022/07/12 03:02:58;;;;;;;;;;;;;;;;;;1041218;28;4059;-54
2022/07/12 03:03:29;;;;;;;;;;;;;;;;;;1042662;28;1263;-55
2022/07/12 03:03:59;;;;;;;;;;;;;;;;;;1043104;28;3972;-50
2022/07/12 03:04:29;;;;;;;;;;;;;;;;;;1045567;28;1651;-50
2022/07/12 03:04:59;;;;;;;;;;;;;;;;;;1044224;28;4013;-50
2022/07/12 03:05:30;;;;;;;;;;;;;;;;;;1044419;28;1606;-54
2022/07/12 03:06:00;;;;;;;;;;;;;;;;;;1045683;28;3908;-49
2022/07/12 03:06:30;;;;;;;;;;;;;;;;;;1042763;28;1667;-54
2022/07/12 03:07:01;;;;;;;;;;;;;;;;;;1041747;28;4250;-54
2022/07/12 03:07:31;;;;;;;;;;;;;;;;;;1043053;28;1938;-49
2022/07/12 03:08:04;;;;;;;;;;;;;;;;;;1041947;28;4064;-49
2022/07/12 03:08:34;;;;;;;;;;;;;;;;;;1040641;28;1525;-50
2022/07/12 03:09:05;;;;;;;;;;;;;;;;;;1036949;28;4294;-52
2022/07/12 03:09:35;;;;;;;;;;;;;;;;;;1038406;28;1788;-50
2022/07/12 03:10:06;;;;;;;;;;;;;;;;;;1036611;28;4230;-50
2022/07/12 03:10:36;;;;;;;;;;;;;;;;;;1043008;28;1680;-51
2022/07/12 03:11:07;;;;;;;;;;;;;;;;;;1040972;28;4270;-55
2022/07/12 03:11:37;;;;;;;;;;;;;;;;;;1042662;28;1613;-54
2022/07/12 03:12:07;;;;;;;;;;;;;;;;;;1040951;28;3808;-52
2022/07/12 03:12:38;;;;;;;;;;;;;;;;;;1039462;28;1602;-50
2022/07/12 03:13:09;;;;;;;;;;;;;;;;;;1040940;28;3882;-53
2022/07/12 03:13:40;;;;;;;;;;;;;;;;;;1042766;28;1796;-50
2022/07/12 03:14:10;;;;;;;;;;;;;;;;;;1042574;28;3832;-52
2022/07/12 03:14:40;;;;;;;;;;;;;;;;;;1045624;28;1664;-53
2022/07/12 03:15:10;;;;;;;;;;;;;;;;;;1044435;28;4165;-53
2022/07/12 03:15:41;;;;;;;;;;;;;;;;;;1045631;28;1608;-54
2022/07/12 03:16:11;;;;;;;;;;;;;;;;;;1044228;28;4076;-50
2022/07/12 03:16:41;;;;;;;;;;;;;;;;;;1045889;28;1695;-52
2022/07/12 03:17:11;;;;;;;;;;;;;;;;;;1044116;28;4235;-53
2022/07/12 03:17:42;;;;;;;;;;;;;;;;;;1045803;28;1751;-51
2022/07/12 03:18:13;;;;;;;;;;;;;;;;;;1040678;28;4202;-55
2022/07/12 03:18:43;;;;;;;;;;;;;;;;;;1037278;28;1310;-53
2022/07/12 03:19:13;;;;;;;;;;;;;;;;;;1035277;28;4002;-50
2022/07/12 03:19:51;;;;;;;;;;;;;;;;;;1037130;28;1602;-48
2022/07/12 03:20:21;;;;;;;;;;;;;;;;;;1043433;28;4224;-50
2022/07/12 03:20:51;;;;;;;;;;;;;;;;;;1044417;28;1705;-54
2022/07/12 03:21:22;;;;;;;;;;;;;;;;;;1045091;28;4033;-50
2022/07/12 03:21:52;;;;;;;;;;;;;;;;;;1045467;28;1833;-51
2022/07/12 03:22:22;;;;;;;;;;;;;;;;;;1045145;28;3956;-51
2022/07/12 03:22:53;;;;;;;;;;;;;;;;;;1045518;28;1575;-55
2022/07/12 03:23:24;;;;;;;;;;;;;;;;;;1044292;28;3867;-51
2022/07/12 03:23:54;;;;;;;;;;;;;;;;;;1045341;28;4179;-54
2022/07/12 03:24:24;;;;;;;;;;;;;;;;;;1045142;28;1967;-52
2022/07/12 03:24:55;;;;;;;;;;;;;;;;;;1046413;28;4110;-50
2022/07/12 03:25:25;;;;;;;;;;;;;;;;;;1046603;28;1697;-53
2022/07/12 03:25:55;;;;;;;;;;;;;;;;;;1045656;28;3884;-51
2022/07/12 03:26:26;;;;;;;;;;;;;;;;;;1046463;28;1323;-55
2022/07/12 03:26:56;;;;;;;;;;;;;;;;;;1045333;28;4287;-52
2022/07/12 03:27:26;;;;;;;;;;;;;;;;;;1045141;28;1977;-49
2022/07/12 03:27:56;;;;;;;;;;;;;;;;;;1044312;28;5086;-53
2022/07/12 03:28:33;;;;;;;;;;;;;;;;;;1045263;28;1663;-51
2022/07/12 03:29:04;;;;;;;;;;;;;;;;;;1043890;28;4040;-50
2022/07/12 03:29:35;;;;;;;;;;;;;;;;;;1045365;28;1765;-52
2022/07/12 03:30:05;;;;;;;;;;;;;;;;;;1044459;28;3952;-53
2022/07/12 03:30:35;;;;;;;;;;;;;;;;;;1045697;28;1596;-53
2022/07/12 03:31:06;;;;;;;;;;;;;;;;;;1046080;28;4097;-52
2022/07/12 03:31:36;;;;;;;;;;;;;;;;;;1044719;28;2221;-53
2022/07/12 03:32:06;;;;;;;;;;;;;;;;;;1044669;28;4070;-50
2022/07/12 03:32:37;;;;;;;;;;;;;;;;;;1044473;28;1755;-53
2022/07/12 03:33:07;;;;;;;;;;;;;;;;;;1042722;28;3922;-54
2022/07/12 03:33:38;;;;;;;;;;;;;;;;;;1041971;28;1613;-54
2022/07/12 03:34:08;;;;;;;;;;;;;;;;;;1042243;28;3943;-51
2022/07/12 03:34:38;;;;;;;;;;;;;;;;;;1042425;28;1693;-52
2022/07/12 03:35:08;;;;;;;;;;;;;;;;;;1044299;28;4070;-52